sensor_id;sensor_type;location;lat;lon;timestamp;P1;durP1;ratioP1;P2;durP2;ratioP2
22737;SDS011;11536;50.860;4.286;2023-04-16T00:01:04;7.43;;;3.00;;
22737;SDS011;11536;50.860;4.286;2023-04-16T00:03:30;8.35;;;3.08;;
22737;SDS011;11536;50.860;4.286;2023-04-16T00:05:55;8.40;;;2.83;;
22737;SDS011;11536;50.860;4.286;2023-04-16T00:08:24;5.43;;;2.70;;
22737;SDS011;11536;50.860;4.286;2023-04-16T00:10:51;7.88;;;3.10;;
22737;SDS011;11536;50.860;4.286;2023-04-16T00:13:17;7.90;;;3.30;;
22737;SDS011;11536;50.860;4.286;2023-04-16T00:15:45;6.85;;;2.88;;
22737;SDS011;11536;50.860;4.286;2023-04-16T00:18:11;7.55;;;2.90;;
22737;SDS011;11536;50.860;4.286;2023-04-16T00:20:36;9.50;;;3.33;;
22737;SDS011;11536;50.860;4.286;2023-04-16T00:23:02;6.82;;;3.00;;
22737;SDS011;11536;50.860;4.286;2023-04-16T00:25:28;10.30;;;3.08;;
22737;SDS011;11536;50.860;4.286;2023-04-16T00:27:53;8.48;;;3.20;;
22737;SDS011;11536;50.860;4.286;2023-04-16T00:30:25;5.18;;;2.60;;
22737;SDS011;11536;50.860;4.286;2023-04-16T00:32:51;8.30;;;3.00;;
22737;SDS011;11536;50.860;4.286;2023-04-16T00:35:17;6.72;;;3.00;;
22737;SDS011;11536;50.860;4.286;2023-04-16T00:37:42;6.50;;;2.40;;
22737;SDS011;11536;50.860;4.286;2023-04-16T00:40:08;7.95;;;2.50;;
22737;SDS011;11536;50.860;4.286;2023-04-16T00:42:34;6.32;;;2.30;;
22737;SDS011;11536;50.860;4.286;2023-04-16T00:45:01;5.38;;;2.20;;
22737;SDS011;11536;50.860;4.286;2023-04-16T00:47:26;6.75;;;1.95;;
22737;SDS011;11536;50.860;4.286;2023-04-16T00:49:52;7.28;;;1.63;;
22737;SDS011;11536;50.860;4.286;2023-04-16T00:52:18;5.93;;;1.45;;
22737;SDS011;11536;50.860;4.286;2023-04-16T00:54:44;3.80;;;1.65;;
22737;SDS011;11536;50.860;4.286;2023-04-16T00:57:10;3.35;;;1.30;;
22737;SDS011;11536;50.860;4.286;2023-04-16T00:59:38;5.18;;;1.88;;
22737;SDS011;11536;50.860;4.286;2023-04-16T01:02:05;8.77;;;1.95;;
22737;SDS011;11536;50.860;4.286;2023-04-16T01:04:30;3.92;;;1.60;;
22737;SDS011;11536;50.860;4.286;2023-04-16T01:06:57;6.88;;;1.50;;
22737;SDS011;11536;50.860;4.286;2023-04-16T01:09:23;5.28;;;1.75;;
22737;SDS011;11536;50.860;4.286;2023-04-16T01:11:49;5.82;;;1.60;;
22737;SDS011;11536;50.860;4.286;2023-04-16T01:14:15;4.78;;;1.90;;
22737;SDS011;11536;50.860;4.286;2023-04-16T01:16:40;9.10;;;1.80;;
22737;SDS011;11536;50.860;4.286;2023-04-16T01:19:06;4.35;;;1.90;;
22737;SDS011;11536;50.860;4.286;2023-04-16T01:21:31;5.88;;;1.98;;
22737;SDS011;11536;50.860;4.286;2023-04-16T01:24:00;6.65;;;2.10;;
22737;SDS011;11536;50.860;4.286;2023-04-16T01:26:27;9.40;;;2.45;;
22737;SDS011;11536;50.860;4.286;2023-04-16T01:28:53;6.75;;;2.20;;
22737;SDS011;11536;50.860;4.286;2023-04-16T01:31:18;5.68;;;2.13;;
22737;SDS011;11536;50.860;4.286;2023-04-16T01:33:44;4.88;;;1.90;;
22737;SDS011;11536;50.860;4.286;2023-04-16T01:36:10;7.57;;;2.10;;
22737;SDS011;11536;50.860;4.286;2023-04-16T01:38:35;4.53;;;2.13;;
22737;SDS011;11536;50.860;4.286;2023-04-16T01:41:01;4.38;;;1.88;;
22737;SDS011;11536;50.860;4.286;2023-04-16T01:43:27;5.18;;;2.00;;
22737;SDS011;11536;50.860;4.286;2023-04-16T01:45:58;4.28;;;1.77;;
22737;SDS011;11536;50.860;4.286;2023-04-16T01:48:50;5.53;;;2.00;;
22737;SDS011;11536;50.860;4.286;2023-04-16T01:51:18;4.93;;;2.08;;
22737;SDS011;11536;50.860;4.286;2023-04-16T01:53:44;3.33;;;1.48;;
22737;SDS011;11536;50.860;4.286;2023-04-16T01:56:10;4.45;;;1.67;;
22737;SDS011;11536;50.860;4.286;2023-04-16T01:58:35;6.40;;;2.35;;
22737;SDS011;11536;50.860;4.286;2023-04-16T02:01:01;6.13;;;1.70;;
22737;SDS011;11536;50.860;4.286;2023-04-16T02:03:27;3.67;;;1.52;;
22737;SDS011;11536;50.860;4.286;2023-04-16T02:05:52;3.88;;;1.70;;
22737;SDS011;11536;50.860;4.286;2023-04-16T02:08:18;4.28;;;1.40;;
22737;SDS011;11536;50.860;4.286;2023-04-16T02:10:44;3.28;;;1.25;;
22737;SDS011;11536;50.860;4.286;2023-04-16T02:13:11;3.22;;;1.58;;
22737;SDS011;11536;50.860;4.286;2023-04-16T02:15:37;2.58;;;1.20;;
22737;SDS011;11536;50.860;4.286;2023-04-16T02:18:03;2.58;;;1.23;;
22737;SDS011;11536;50.860;4.286;2023-04-16T02:20:28;5.15;;;1.40;;
22737;SDS011;11536;50.860;4.286;2023-04-16T02:22:54;5.18;;;1.52;;
22737;SDS011;11536;50.860;4.286;2023-04-16T02:25:19;4.78;;;1.40;;
22737;SDS011;11536;50.860;4.286;2023-04-16T02:27:46;5.75;;;1.95;;
22737;SDS011;11536;50.860;4.286;2023-04-16T02:30:12;4.68;;;1.60;;
22737;SDS011;11536;50.860;4.286;2023-04-16T02:32:37;6.10;;;1.40;;
22737;SDS011;11536;50.860;4.286;2023-04-16T02:35:03;4.10;;;1.38;;
22737;SDS011;11536;50.860;4.286;2023-04-16T02:37:29;7.25;;;1.60;;
22737;SDS011;11536;50.860;4.286;2023-04-16T02:39:55;4.75;;;1.65;;
22737;SDS011;11536;50.860;4.286;2023-04-16T02:42:21;3.72;;;1.40;;
22737;SDS011;11536;50.860;4.286;2023-04-16T02:44:47;7.00;;;1.67;;
22737;SDS011;11536;50.860;4.286;2023-04-16T02:47:12;3.80;;;1.42;;
22737;SDS011;11536;50.860;4.286;2023-04-16T02:49:38;4.47;;;1.60;;
22737;SDS011;11536;50.860;4.286;2023-04-16T02:52:04;3.97;;;1.00;;
22737;SDS011;11536;50.860;4.286;2023-04-16T02:54:29;3.85;;;1.23;;
22737;SDS011;11536;50.860;4.286;2023-04-16T02:56:55;3.80;;;0.90;;
22737;SDS011;11536;50.860;4.286;2023-04-16T02:59:21;4.78;;;1.30;;
22737;SDS011;11536;50.860;4.286;2023-04-16T03:01:46;5.28;;;0.95;;
22737;SDS011;11536;50.860;4.286;2023-04-16T03:04:12;2.65;;;1.00;;
22737;SDS011;11536;50.860;4.286;2023-04-16T03:06:37;4.38;;;1.13;;
22737;SDS011;11536;50.860;4.286;2023-04-16T03:09:03;3.00;;;1.00;;
22737;SDS011;11536;50.860;4.286;2023-04-16T03:11:28;3.65;;;0.88;;
22737;SDS011;11536;50.860;4.286;2023-04-16T03:13:54;6.03;;;1.00;;
22737;SDS011;11536;50.860;4.286;2023-04-16T03:16:20;5.55;;;1.10;;
22737;SDS011;11536;50.860;4.286;2023-04-16T03:18:46;1.92;;;1.02;;
22737;SDS011;11536;50.860;4.286;2023-04-16T03:21:11;3.00;;;0.90;;
22737;SDS011;11536;50.860;4.286;2023-04-16T03:23:37;2.75;;;1.00;;
22737;SDS011;11536;50.860;4.286;2023-04-16T03:26:03;2.97;;;0.82;;
22737;SDS011;11536;50.860;4.286;2023-04-16T03:28:28;5.43;;;0.90;;
22737;SDS011;11536;50.860;4.286;2023-04-16T03:30:54;4.93;;;1.30;;
22737;SDS011;11536;50.860;4.286;2023-04-16T03:33:20;5.07;;;0.93;;
22737;SDS011;11536;50.860;4.286;2023-04-16T03:35:46;4.65;;;0.82;;
22737;SDS011;11536;50.860;4.286;2023-04-16T03:38:22;4.70;;;1.00;;
22737;SDS011;11536;50.860;4.286;2023-04-16T03:40:48;3.58;;;0.85;;
22737;SDS011;11536;50.860;4.286;2023-04-16T03:43:13;4.03;;;0.70;;
22737;SDS011;11536;50.860;4.286;2023-04-16T03:45:43;3.90;;;0.80;;
22737;SDS011;11536;50.860;4.286;2023-04-16T03:48:09;2.75;;;0.82;;
22737;SDS011;11536;50.860;4.286;2023-04-16T03:50:34;4.75;;;1.10;;
22737;SDS011;11536;50.860;4.286;2023-04-16T03:53:00;9.02;;;1.15;;
22737;SDS011;11536;50.860;4.286;2023-04-16T03:55:26;3.60;;;1.00;;
22737;SDS011;11536;50.860;4.286;2023-04-16T03:57:52;3.15;;;0.93;;
22737;SDS011;11536;50.860;4.286;2023-04-16T04:00:18;5.20;;;1.10;;
22737;SDS011;11536;50.860;4.286;2023-04-16T04:02:44;4.97;;;1.10;;
22737;SDS011;11536;50.860;4.286;2023-04-16T04:05:09;3.13;;;1.10;;
22737;SDS011;11536;50.860;4.286;2023-04-16T04:07:35;2.95;;;0.77;;
22737;SDS011;11536;50.860;4.286;2023-04-16T04:10:00;5.40;;;1.15;;
22737;SDS011;11536;50.860;4.286;2023-04-16T04:12:26;3.85;;;1.02;;
22737;SDS011;11536;50.860;4.286;2023-04-16T04:14:51;3.50;;;1.00;;
22737;SDS011;11536;50.860;4.286;2023-04-16T04:17:17;6.45;;;1.00;;
22737;SDS011;11536;50.860;4.286;2023-04-16T04:19:43;3.95;;;0.95;;
22737;SDS011;11536;50.860;4.286;2023-04-16T04:22:08;5.47;;;1.40;;
22737;SDS011;11536;50.860;4.286;2023-04-16T04:24:34;2.40;;;1.10;;
22737;SDS011;11536;50.860;4.286;2023-04-16T04:26:59;2.90;;;1.00;;
22737;SDS011;11536;50.860;4.286;2023-04-16T04:29:25;6.40;;;1.30;;
22737;SDS011;11536;50.860;4.286;2023-04-16T04:31:51;2.55;;;0.95;;
22737;SDS011;11536;50.860;4.286;2023-04-16T04:34:17;4.68;;;1.02;;
22737;SDS011;11536;50.860;4.286;2023-04-16T04:36:43;7.10;;;1.35;;
22737;SDS011;11536;50.860;4.286;2023-04-16T04:39:08;3.30;;;1.10;;
22737;SDS011;11536;50.860;4.286;2023-04-16T04:41:34;6.07;;;1.20;;
22737;SDS011;11536;50.860;4.286;2023-04-16T04:44:00;4.82;;;1.42;;
22737;SDS011;11536;50.860;4.286;2023-04-16T04:46:25;4.43;;;1.73;;
22737;SDS011;11536;50.860;4.286;2023-04-16T04:48:51;7.38;;;1.13;;
22737;SDS011;11536;50.860;4.286;2023-04-16T04:51:16;3.08;;;0.80;;
22737;SDS011;11536;50.860;4.286;2023-04-16T04:53:42;4.05;;;1.20;;
22737;SDS011;11536;50.860;4.286;2023-04-16T04:56:07;5.60;;;1.20;;
22737;SDS011;11536;50.860;4.286;2023-04-16T04:58:33;3.92;;;1.20;;
22737;SDS011;11536;50.860;4.286;2023-04-16T05:00:58;5.80;;;0.98;;
22737;SDS011;11536;50.860;4.286;2023-04-16T05:03:24;5.70;;;1.00;;
22737;SDS011;11536;50.860;4.286;2023-04-16T05:05:50;2.28;;;0.77;;
22737;SDS011;11536;50.860;4.286;2023-04-16T05:08:15;4.20;;;1.17;;
22737;SDS011;11536;50.860;4.286;2023-04-16T05:10:41;2.28;;;0.80;;
22737;SDS011;11536;50.860;4.286;2023-04-16T05:13:06;4.30;;;0.98;;
22737;SDS011;11536;50.860;4.286;2023-04-16T05:15:32;5.20;;;0.88;;
22737;SDS011;11536;50.860;4.286;2023-04-16T05:17:58;5.35;;;0.98;;
22737;SDS011;11536;50.860;4.286;2023-04-16T05:20:23;5.40;;;1.10;;
22737;SDS011;11536;50.860;4.286;2023-04-16T05:22:49;4.43;;;0.90;;
22737;SDS011;11536;50.860;4.286;2023-04-16T05:25:15;6.68;;;1.48;;
22737;SDS011;11536;50.860;4.286;2023-04-16T05:27:41;4.03;;;1.00;;
22737;SDS011;11536;50.860;4.286;2023-04-16T05:30:07;6.13;;;0.80;;
22737;SDS011;11536;50.860;4.286;2023-04-16T05:32:33;4.88;;;0.90;;
22737;SDS011;11536;50.860;4.286;2023-04-16T05:34:59;4.65;;;0.85;;
22737;SDS011;11536;50.860;4.286;2023-04-16T05:37:25;5.53;;;1.10;;
22737;SDS011;11536;50.860;4.286;2023-04-16T05:39:50;2.00;;;0.65;;
22737;SDS011;11536;50.860;4.286;2023-04-16T05:42:16;4.68;;;1.00;;
22737;SDS011;11536;50.860;4.286;2023-04-16T05:44:42;3.92;;;0.90;;
22737;SDS011;11536;50.860;4.286;2023-04-16T05:47:07;3.95;;;0.80;;
22737;SDS011;11536;50.860;4.286;2023-04-16T05:49:33;5.80;;;1.65;;
22737;SDS011;11536;50.860;4.286;2023-04-16T05:52:01;4.10;;;1.02;;
22737;SDS011;11536;50.860;4.286;2023-04-16T05:54:27;6.05;;;1.20;;
22737;SDS011;11536;50.860;4.286;2023-04-16T05:56:52;4.45;;;0.93;;
22737;SDS011;11536;50.860;4.286;2023-04-16T05:59:18;3.97;;;1.10;;
22737;SDS011;11536;50.860;4.286;2023-04-16T06:01:44;5.60;;;1.00;;
22737;SDS011;11536;50.860;4.286;2023-04-16T06:04:10;5.47;;;1.30;;
22737;SDS011;11536;50.860;4.286;2023-04-16T06:06:35;4.40;;;1.05;;
22737;SDS011;11536;50.860;4.286;2023-04-16T06:09:01;3.90;;;1.05;;
22737;SDS011;11536;50.860;4.286;2023-04-16T06:11:31;3.03;;;1.10;;
22737;SDS011;11536;50.860;4.286;2023-04-16T06:13:56;4.88;;;1.05;;
22737;SDS011;11536;50.860;4.286;2023-04-16T06:16:22;4.45;;;1.00;;
22737;SDS011;11536;50.860;4.286;2023-04-16T06:18:47;4.28;;;1.20;;
22737;SDS011;11536;50.860;4.286;2023-04-16T06:21:13;6.80;;;1.42;;
22737;SDS011;11536;50.860;4.286;2023-04-16T06:23:39;4.88;;;1.20;;
22737;SDS011;11536;50.860;4.286;2023-04-16T06:26:05;4.28;;;1.40;;
22737;SDS011;11536;50.860;4.286;2023-04-16T06:28:30;5.13;;;1.55;;
22737;SDS011;11536;50.860;4.286;2023-04-16T06:30:56;5.55;;;1.30;;
22737;SDS011;11536;50.860;4.286;2023-04-16T06:33:22;5.60;;;1.10;;
22737;SDS011;11536;50.860;4.286;2023-04-16T06:35:47;3.92;;;1.23;;
22737;SDS011;11536;50.860;4.286;2023-04-16T06:38:13;4.15;;;1.38;;
22737;SDS011;11536;50.860;4.286;2023-04-16T06:40:39;6.28;;;1.60;;
22737;SDS011;11536;50.860;4.286;2023-04-16T06:43:04;4.32;;;1.40;;
22737;SDS011;11536;50.860;4.286;2023-04-16T06:45:30;6.90;;;2.03;;
22737;SDS011;11536;50.860;4.286;2023-04-16T06:47:56;6.45;;;1.77;;
22737;SDS011;11536;50.860;4.286;2023-04-16T06:50:23;5.82;;;1.67;;
22737;SDS011;11536;50.860;4.286;2023-04-16T06:52:50;6.30;;;1.73;;
22737;SDS011;11536;50.860;4.286;2023-04-16T06:55:16;6.10;;;1.98;;
22737;SDS011;11536;50.860;4.286;2023-04-16T06:57:42;5.63;;;1.90;;
22737;SDS011;11536;50.860;4.286;2023-04-16T07:00:07;5.15;;;2.17;;
22737;SDS011;11536;50.860;4.286;2023-04-16T07:02:33;5.32;;;2.13;;
22737;SDS011;11536;50.860;4.286;2023-04-16T07:04:59;7.38;;;2.20;;
22737;SDS011;11536;50.860;4.286;2023-04-16T07:07:25;6.38;;;1.98;;
22737;SDS011;11536;50.860;4.286;2023-04-16T07:09:51;6.25;;;1.92;;
22737;SDS011;11536;50.860;4.286;2023-04-16T07:12:16;6.57;;;2.60;;
22737;SDS011;11536;50.860;4.286;2023-04-16T07:14:42;8.63;;;2.60;;
22737;SDS011;11536;50.860;4.286;2023-04-16T07:17:07;8.32;;;2.13;;
22737;SDS011;11536;50.860;4.286;2023-04-16T07:19:33;6.35;;;2.00;;
22737;SDS011;11536;50.860;4.286;2023-04-16T07:21:59;7.47;;;1.90;;
22737;SDS011;11536;50.860;4.286;2023-04-16T07:24:25;4.88;;;1.90;;
22737;SDS011;11536;50.860;4.286;2023-04-16T07:26:51;5.35;;;1.60;;
22737;SDS011;11536;50.860;4.286;2023-04-16T07:29:16;8.07;;;1.80;;
22737;SDS011;11536;50.860;4.286;2023-04-16T07:31:42;3.92;;;1.67;;
22737;SDS011;11536;50.860;4.286;2023-04-16T07:34:08;4.15;;;1.60;;
22737;SDS011;11536;50.860;4.286;2023-04-16T07:36:34;7.03;;;1.90;;
22737;SDS011;11536;50.860;4.286;2023-04-16T07:39:00;7.55;;;2.05;;
22737;SDS011;11536;50.860;4.286;2023-04-16T07:41:26;9.65;;;2.72;;
22737;SDS011;11536;50.860;4.286;2023-04-16T07:43:53;8.38;;;2.47;;
22737;SDS011;11536;50.860;4.286;2023-04-16T07:46:19;7.50;;;2.33;;
22737;SDS011;11536;50.860;4.286;2023-04-16T07:48:45;5.70;;;2.30;;
22737;SDS011;11536;50.860;4.286;2023-04-16T07:51:10;8.05;;;2.40;;
22737;SDS011;11536;50.860;4.286;2023-04-16T07:53:36;9.18;;;2.80;;
22737;SDS011;11536;50.860;4.286;2023-04-16T07:56:02;13.13;;;3.78;;
22737;SDS011;11536;50.860;4.286;2023-04-16T07:58:31;11.13;;;3.15;;
22737;SDS011;11536;50.860;4.286;2023-04-16T08:00:56;7.45;;;3.03;;
22737;SDS011;11536;50.860;4.286;2023-04-16T08:03:22;6.72;;;2.90;;
22737;SDS011;11536;50.860;4.286;2023-04-16T08:05:48;10.60;;;3.35;;
22737;SDS011;11536;50.860;4.286;2023-04-16T08:08:13;7.18;;;3.05;;
22737;SDS011;11536;50.860;4.286;2023-04-16T08:10:39;9.32;;;3.13;;
22737;SDS011;11536;50.860;4.286;2023-04-16T08:13:05;10.10;;;3.83;;
22737;SDS011;11536;50.860;4.286;2023-04-16T08:15:30;9.80;;;4.15;;
22737;SDS011;11536;50.860;4.286;2023-04-16T08:17:56;10.23;;;3.50;;
22737;SDS011;11536;50.860;4.286;2023-04-16T08:20:22;11.90;;;4.50;;
22737;SDS011;11536;50.860;4.286;2023-04-16T08:22:48;10.13;;;4.05;;
22737;SDS011;11536;50.860;4.286;2023-04-16T08:25:13;10.43;;;4.25;;
22737;SDS011;11536;50.860;4.286;2023-04-16T08:27:39;10.95;;;4.13;;
22737;SDS011;11536;50.860;4.286;2023-04-16T08:30:05;10.65;;;4.40;;
22737;SDS011;11536;50.860;4.286;2023-04-16T08:32:31;11.60;;;4.15;;
22737;SDS011;11536;50.860;4.286;2023-04-16T08:34:57;11.23;;;4.38;;
22737;SDS011;11536;50.860;4.286;2023-04-16T08:37:24;10.40;;;3.95;;
22737;SDS011;11536;50.860;4.286;2023-04-16T08:39:50;8.10;;;4.10;;
22737;SDS011;11536;50.860;4.286;2023-04-16T08:42:38;11.82;;;4.65;;
22737;SDS011;11536;50.860;4.286;2023-04-16T08:45:13;9.60;;;3.78;;
22737;SDS011;11536;50.860;4.286;2023-04-16T08:47:44;13.15;;;4.75;;
22737;SDS011;11536;50.860;4.286;2023-04-16T08:50:15;11.35;;;4.32;;
22737;SDS011;11536;50.860;4.286;2023-04-16T08:52:44;15.43;;;4.35;;
22737;SDS011;11536;50.860;4.286;2023-04-16T08:55:14;9.68;;;4.57;;
22737;SDS011;11536;50.860;4.286;2023-04-16T08:57:58;8.93;;;3.85;;
22737;SDS011;11536;50.860;4.286;2023-04-16T09:00:25;12.80;;;5.00;;
22737;SDS011;11536;50.860;4.286;2023-04-16T09:02:52;6.72;;;3.80;;
22737;SDS011;11536;50.860;4.286;2023-04-16T09:05:17;9.00;;;4.07;;
22737;SDS011;11536;50.860;4.286;2023-04-16T09:07:45;10.52;;;4.13;;
22737;SDS011;11536;50.860;4.286;2023-04-16T09:10:13;12.32;;;4.72;;
22737;SDS011;11536;50.860;4.286;2023-04-16T09:12:43;11.70;;;4.10;;
22737;SDS011;11536;50.860;4.286;2023-04-16T09:15:09;12.68;;;4.57;;
22737;SDS011;11536;50.860;4.286;2023-04-16T09:17:37;12.00;;;3.80;;
22737;SDS011;11536;50.860;4.286;2023-04-16T09:20:06;11.85;;;4.60;;
22737;SDS011;11536;50.860;4.286;2023-04-16T09:22:36;10.43;;;4.03;;
22737;SDS011;11536;50.860;4.286;2023-04-16T09:25:02;10.95;;;4.43;;
22737;SDS011;11536;50.860;4.286;2023-04-16T09:27:29;11.68;;;4.10;;
22737;SDS011;11536;50.860;4.286;2023-04-16T09:29:55;11.05;;;4.20;;
22737;SDS011;11536;50.860;4.286;2023-04-16T09:32:24;12.88;;;4.53;;
22737;SDS011;11536;50.860;4.286;2023-04-16T09:34:57;14.73;;;4.70;;
22737;SDS011;11536;50.860;4.286;2023-04-16T09:37:25;14.77;;;4.43;;
22737;SDS011;11536;50.860;4.286;2023-04-16T09:40:00;10.05;;;4.22;;
22737;SDS011;11536;50.860;4.286;2023-04-16T09:44:54;9.40;;;4.45;;
22737;SDS011;11536;50.860;4.286;2023-04-16T09:47:21;9.85;;;4.40;;
22737;SDS011;11536;50.860;4.286;2023-04-16T09:49:51;8.82;;;3.55;;
22737;SDS011;11536;50.860;4.286;2023-04-16T09:52:23;9.50;;;3.75;;
22737;SDS011;11536;50.860;4.286;2023-04-16T09:54:50;10.70;;;3.28;;
22737;SDS011;11536;50.860;4.286;2023-04-16T09:57:18;9.65;;;3.63;;
22737;SDS011;11536;50.860;4.286;2023-04-16T09:59:45;11.13;;;3.42;;
22737;SDS011;11536;50.860;4.286;2023-04-16T10:02:11;8.43;;;3.38;;
22737;SDS011;11536;50.860;4.286;2023-04-16T10:07:12;9.75;;;3.97;;
22737;SDS011;11536;50.860;4.286;2023-04-16T10:09:38;7.97;;;3.60;;
22737;SDS011;11536;50.860;4.286;2023-04-16T10:12:08;11.10;;;4.03;;
22737;SDS011;11536;50.860;4.286;2023-04-16T10:14:36;6.80;;;3.20;;
22737;SDS011;11536;50.860;4.286;2023-04-16T10:17:03;5.57;;;2.95;;
22737;SDS011;11536;50.860;4.286;2023-04-16T10:19:30;10.00;;;3.40;;
22737;SDS011;11536;50.860;4.286;2023-04-16T10:21:56;10.90;;;3.67;;
22737;SDS011;11536;50.860;4.286;2023-04-16T10:24:22;8.35;;;3.17;;
22737;SDS011;11536;50.860;4.286;2023-04-16T10:26:49;10.00;;;3.28;;
22737;SDS011;11536;50.860;4.286;2023-04-16T10:29:17;8.00;;;3.58;;
22737;SDS011;11536;50.860;4.286;2023-04-16T10:31:44;8.35;;;3.10;;
22737;SDS011;11536;50.860;4.286;2023-04-16T10:34:11;8.23;;;3.58;;
22737;SDS011;11536;50.860;4.286;2023-04-16T10:36:37;7.88;;;2.70;;
22737;SDS011;11536;50.860;4.286;2023-04-16T10:39:05;7.43;;;3.20;;
22737;SDS011;11536;50.860;4.286;2023-04-16T10:41:35;7.88;;;3.10;;
22737;SDS011;11536;50.860;4.286;2023-04-16T10:44:05;8.93;;;3.35;;
22737;SDS011;11536;50.860;4.286;2023-04-16T10:46:35;8.30;;;3.20;;
22737;SDS011;11536;50.860;4.286;2023-04-16T10:49:12;9.02;;;3.70;;
22737;SDS011;11536;50.860;4.286;2023-04-16T10:51:51;8.63;;;2.95;;
22737;SDS011;11536;50.860;4.286;2023-04-16T10:54:26;11.45;;;3.05;;
22737;SDS011;11536;50.860;4.286;2023-04-16T10:56:55;10.40;;;4.45;;
22737;SDS011;11536;50.860;4.286;2023-04-16T10:59:22;9.63;;;2.97;;
22737;SDS011;11536;50.860;4.286;2023-04-16T11:01:55;10.25;;;3.35;;
22737;SDS011;11536;50.860;4.286;2023-04-16T11:12:33;9.23;;;4.03;;
22737;SDS011;11536;50.860;4.286;2023-04-16T11:17:32;13.80;;;4.28;;
22737;SDS011;11536;50.860;4.286;2023-04-16T11:20:14;9.13;;;3.83;;
22737;SDS011;11536;50.860;4.286;2023-04-16T11:22:41;8.82;;;3.65;;
22737;SDS011;11536;50.860;4.286;2023-04-16T11:25:07;9.13;;;3.63;;
22737;SDS011;11536;50.860;4.286;2023-04-16T11:27:33;8.98;;;3.58;;
22737;SDS011;11536;50.860;4.286;2023-04-16T11:29:59;6.97;;;3.20;;
22737;SDS011;11536;50.860;4.286;2023-04-16T11:32:29;11.25;;;3.45;;
22737;SDS011;11536;50.860;4.286;2023-04-16T11:34:57;9.05;;;2.92;;
22737;SDS011;11536;50.860;4.286;2023-04-16T11:37:30;11.30;;;3.30;;
22737;SDS011;11536;50.860;4.286;2023-04-16T11:40:00;6.78;;;3.00;;
22737;SDS011;11536;50.860;4.286;2023-04-16T11:42:28;9.13;;;3.25;;
22737;SDS011;11536;50.860;4.286;2023-04-16T11:44:55;11.30;;;3.80;;
22737;SDS011;11536;50.860;4.286;2023-04-16T11:47:22;10.52;;;3.40;;
22737;SDS011;11536;50.860;4.286;2023-04-16T11:49:48;7.97;;;3.25;;
22737;SDS011;11536;50.860;4.286;2023-04-16T11:52:23;9.45;;;3.60;;
22737;SDS011;11536;50.860;4.286;2023-04-16T11:54:59;9.65;;;4.30;;
22737;SDS011;11536;50.860;4.286;2023-04-16T11:57:29;12.75;;;5.05;;
22737;SDS011;11536;50.860;4.286;2023-04-16T11:59:56;10.38;;;4.80;;
22737;SDS011;11536;50.860;4.286;2023-04-16T12:07:54;10.60;;;5.85;;
22737;SDS011;11536;50.860;4.286;2023-04-16T12:10:21;12.48;;;4.95;;
22737;SDS011;11536;50.860;4.286;2023-04-16T12:15:51;11.77;;;4.93;;
22737;SDS011;11536;50.860;4.286;2023-04-16T12:18:21;9.80;;;4.30;;
22737;SDS011;11536;50.860;4.286;2023-04-16T12:20:48;10.75;;;4.90;;
22737;SDS011;11536;50.860;4.286;2023-04-16T12:23:27;10.20;;;4.80;;
22737;SDS011;11536;50.860;4.286;2023-04-16T12:25:56;11.48;;;4.63;;
22737;SDS011;11536;50.860;4.286;2023-04-16T12:28:30;9.10;;;4.35;;
22737;SDS011;11536;50.860;4.286;2023-04-16T12:30:57;13.52;;;4.90;;
22737;SDS011;11536;50.860;4.286;2023-04-16T12:33:23;9.40;;;4.18;;
22737;SDS011;11536;50.860;4.286;2023-04-16T12:35:49;10.10;;;4.32;;
22737;SDS011;11536;50.860;4.286;2023-04-16T12:38:19;10.43;;;4.57;;
22737;SDS011;11536;50.860;4.286;2023-04-16T12:40:45;12.25;;;4.57;;
22737;SDS011;11536;50.860;4.286;2023-04-16T12:43:11;10.65;;;4.75;;
22737;SDS011;11536;50.860;4.286;2023-04-16T12:45:38;12.90;;;4.47;;
22737;SDS011;11536;50.860;4.286;2023-04-16T12:48:04;10.10;;;4.53;;
22737;SDS011;11536;50.860;4.286;2023-04-16T12:50:30;10.25;;;4.68;;
22737;SDS011;11536;50.860;4.286;2023-04-16T12:52:56;9.77;;;5.22;;
22737;SDS011;11536;50.860;4.286;2023-04-16T12:55:23;9.68;;;4.55;;
22737;SDS011;11536;50.860;4.286;2023-04-16T12:57:49;11.10;;;4.80;;
22737;SDS011;11536;50.860;4.286;2023-04-16T13:00:16;10.05;;;4.32;;
22737;SDS011;11536;50.860;4.286;2023-04-16T13:02:43;11.88;;;4.93;;
22737;SDS011;11536;50.860;4.286;2023-04-16T13:05:09;9.65;;;4.78;;
22737;SDS011;11536;50.860;4.286;2023-04-16T13:07:35;10.07;;;4.72;;
22737;SDS011;11536;50.860;4.286;2023-04-16T13:10:00;11.55;;;4.90;;
22737;SDS011;11536;50.860;4.286;2023-04-16T13:12:26;12.65;;;4.32;;
22737;SDS011;11536;50.860;4.286;2023-04-16T13:14:52;9.65;;;5.15;;
22737;SDS011;11536;50.860;4.286;2023-04-16T13:17:19;10.77;;;4.78;;
22737;SDS011;11536;50.860;4.286;2023-04-16T13:19:45;11.23;;;4.97;;
22737;SDS011;11536;50.860;4.286;2023-04-16T13:22:10;12.57;;;5.53;;
22737;SDS011;11536;50.860;4.286;2023-04-16T13:24:36;11.77;;;3.97;;
22737;SDS011;11536;50.860;4.286;2023-04-16T13:27:03;10.57;;;4.72;;
22737;SDS011;11536;50.860;4.286;2023-04-16T13:29:29;11.05;;;4.60;;
22737;SDS011;11536;50.860;4.286;2023-04-16T13:31:54;10.93;;;4.70;;
22737;SDS011;11536;50.860;4.286;2023-04-16T13:34:20;10.85;;;5.07;;
22737;SDS011;11536;50.860;4.286;2023-04-16T13:36:46;11.85;;;5.25;;
22737;SDS011;11536;50.860;4.286;2023-04-16T13:39:12;11.93;;;5.28;;
22737;SDS011;11536;50.860;4.286;2023-04-16T13:41:39;12.13;;;4.97;;
22737;SDS011;11536;50.860;4.286;2023-04-16T13:44:05;8.95;;;4.82;;
22737;SDS011;11536;50.860;4.286;2023-04-16T13:46:31;9.80;;;4.78;;
22737;SDS011;11536;50.860;4.286;2023-04-16T13:48:57;12.05;;;5.18;;
22737;SDS011;11536;50.860;4.286;2023-04-16T13:51:22;10.25;;;4.20;;
22737;SDS011;11536;50.860;4.286;2023-04-16T13:53:49;10.18;;;5.03;;
22737;SDS011;11536;50.860;4.286;2023-04-16T13:56:14;11.57;;;4.47;;
22737;SDS011;11536;50.860;4.286;2023-04-16T13:58:40;9.98;;;4.80;;
22737;SDS011;11536;50.860;4.286;2023-04-16T14:01:06;10.55;;;4.30;;
22737;SDS011;11536;50.860;4.286;2023-04-16T14:03:32;12.18;;;4.60;;
22737;SDS011;11536;50.860;4.286;2023-04-16T14:06:00;10.77;;;5.07;;
22737;SDS011;11536;50.860;4.286;2023-04-16T14:08:26;10.45;;;4.82;;
22737;SDS011;11536;50.860;4.286;2023-04-16T14:10:52;14.82;;;4.78;;
22737;SDS011;11536;50.860;4.286;2023-04-16T14:13:18;11.80;;;4.65;;
22737;SDS011;11536;50.860;4.286;2023-04-16T14:15:44;9.75;;;4.35;;
22737;SDS011;11536;50.860;4.286;2023-04-16T14:18:10;11.15;;;4.60;;
22737;SDS011;11536;50.860;4.286;2023-04-16T14:20:36;9.38;;;4.43;;
22737;SDS011;11536;50.860;4.286;2023-04-16T14:23:03;9.63;;;4.18;;
22737;SDS011;11536;50.860;4.286;2023-04-16T14:25:29;10.38;;;4.75;;
22737;SDS011;11536;50.860;4.286;2023-04-16T14:27:55;12.65;;;5.30;;
22737;SDS011;11536;50.860;4.286;2023-04-16T14:30:22;9.18;;;4.93;;
22737;SDS011;11536;50.860;4.286;2023-04-16T14:32:48;7.38;;;3.78;;
22737;SDS011;11536;50.860;4.286;2023-04-16T14:35:14;10.23;;;4.35;;
22737;SDS011;11536;50.860;4.286;2023-04-16T14:37:40;9.98;;;4.30;;
22737;SDS011;11536;50.860;4.286;2023-04-16T14:40:05;10.20;;;4.55;;
22737;SDS011;11536;50.860;4.286;2023-04-16T14:42:32;9.38;;;5.28;;
22737;SDS011;11536;50.860;4.286;2023-04-16T14:45:00;10.45;;;4.88;;
22737;SDS011;11536;50.860;4.286;2023-04-16T14:47:26;12.13;;;5.50;;
22737;SDS011;11536;50.860;4.286;2023-04-16T14:49:52;11.00;;;4.80;;
22737;SDS011;11536;50.860;4.286;2023-04-16T14:52:18;10.55;;;5.55;;
22737;SDS011;11536;50.860;4.286;2023-04-16T14:54:44;11.80;;;4.72;;
22737;SDS011;11536;50.860;4.286;2023-04-16T14:57:09;9.15;;;5.00;;
22737;SDS011;11536;50.860;4.286;2023-04-16T14:59:35;10.50;;;5.25;;
22737;SDS011;11536;50.860;4.286;2023-04-16T15:02:01;11.10;;;4.70;;
22737;SDS011;11536;50.860;4.286;2023-04-16T15:04:26;12.18;;;4.32;;